createdAt,value
2023-05-10T00:00:07.639Z,36.74
2023-05-10T00:01:07.613Z,31.94
2023-05-10T00:02:07.719Z,33.99
2023-05-10T00:03:08.026Z,34.99
2023-05-10T00:04:07.750Z,35.06
2023-05-10T00:05:07.673Z,34.39
2023-05-10T00:06:07.701Z,34.25
2023-05-10T00:07:07.722Z,34.23
2023-05-10T00:08:07.741Z,35.33
2023-05-10T00:09:07.772Z,35.32
2023-05-10T00:10:07.801Z,33.56
2023-05-10T00:11:07.776Z,37.11
2023-05-10T00:12:07.814Z,35.70
2023-05-10T00:13:07.883Z,35.90
2023-05-10T00:14:07.853Z,33.18
2023-05-10T00:15:07.853Z,34.99
2023-05-10T00:16:08.019Z,35.66
2023-05-10T00:17:07.887Z,36.36
2023-05-10T00:18:07.982Z,33.56
2023-05-10T00:19:07.941Z,35.37
2023-05-10T00:20:07.960Z,35.86
2023-05-10T00:21:07.971Z,36.82
2023-05-10T00:22:08.005Z,37.94
2023-05-10T00:23:08.485Z,36.39
2023-05-10T00:24:08.048Z,35.62
2023-05-10T00:25:08.072Z,35.66
2023-05-10T00:26:08.066Z,36.04
2023-05-10T00:27:08.142Z,35.65
2023-05-10T00:28:08.147Z,38.05
2023-05-10T00:29:08.136Z,39.43
2023-05-10T00:30:08.193Z,37.92
2023-05-10T00:31:08.153Z,37.47
2023-05-10T00:32:08.265Z,36.75
2023-05-10T00:33:08.493Z,36.72
2023-05-10T00:34:08.228Z,37.53
2023-05-10T00:35:08.261Z,35.95
2023-05-10T00:36:08.270Z,36.00
2023-05-10T00:37:08.332Z,37.04
2023-05-10T00:38:08.494Z,36.34
2023-05-10T00:39:08.328Z,34.88
2023-05-10T00:40:08.349Z,36.87
2023-05-10T00:41:08.401Z,37.99
2023-05-10T00:42:08.402Z,38.38
2023-05-10T00:43:08.422Z,36.88
2023-05-10T00:44:08.498Z,37.59
2023-05-10T00:45:08.455Z,39.89
2023-05-10T00:46:08.563Z,37.77
2023-05-10T00:47:08.495Z,38.35
2023-05-10T00:48:08.615Z,38.68
2023-05-10T00:49:08.568Z,36.60
2023-05-10T00:50:08.570Z,38.88
2023-05-10T00:51:08.551Z,38.52
2023-05-10T00:52:08.755Z,38.56
2023-05-10T00:53:08.609Z,38.54
2023-05-10T00:54:08.627Z,37.62
2023-05-10T00:55:08.753Z,38.22
2023-05-10T00:56:08.650Z,39.23
2023-05-10T00:57:08.708Z,38.92
2023-05-10T00:58:08.727Z,40.25
2023-05-10T00:59:09.046Z,37.60
2023-05-10T01:00:08.826Z,37.99
2023-05-10T01:01:08.762Z,40.17
2023-05-10T01:02:08.802Z,40.33
2023-05-10T01:03:09.028Z,40.27
2023-05-10T01:04:09.018Z,39.39
2023-05-10T01:05:08.929Z,40.22
2023-05-10T01:06:08.900Z,40.70
2023-05-10T01:07:08.946Z,39.63
2023-05-10T01:08:08.940Z,38.86
2023-05-10T01:09:09.023Z,41.88
2023-05-10T01:10:08.983Z,38.64
2023-05-10T01:11:09.038Z,40.29
2023-05-10T01:12:09.081Z,40.41
2023-05-10T01:13:09.096Z,42.33
2023-05-10T01:14:09.512Z,40.09
2023-05-10T01:15:09.105Z,38.09
2023-05-10T01:16:09.233Z,40.74
2023-05-10T01:17:09.130Z,40.52
2023-05-10T01:18:09.199Z,39.62
2023-05-10T01:19:09.519Z,39.81
2023-05-10T01:20:09.218Z,39.43
2023-05-10T01:21:09.235Z,37.56
2023-05-10T01:22:09.283Z,39.48
2023-05-10T01:23:09.265Z,40.53
2023-05-10T01:24:09.536Z,41.11
2023-05-10T01:25:09.301Z,40.79
2023-05-10T01:26:09.335Z,43.25
2023-05-10T01:27:09.392Z,40.82
2023-05-10T01:28:09.399Z,42.87
2023-05-10T01:29:09.563Z,42.52
2023-05-10T01:30:14.704Z,42.18
2023-05-10T01:31:10.462Z,42.27
2023-05-10T01:32:09.447Z,42.53
2023-05-10T01:33:09.540Z,42.50
2023-05-10T01:34:09.537Z,43.09
2023-05-10T01:35:09.369Z,42.27
2023-05-10T01:36:09.422Z,42.10
2023-05-10T01:37:09.378Z,41.39
2023-05-10T01:38:09.395Z,42.31
2023-05-10T01:39:09.494Z,44.33
2023-05-10T01:40:09.372Z,40.55
2023-05-10T01:41:09.368Z,41.63
2023-05-10T01:42:09.363Z,39.57
2023-05-10T01:43:09.303Z,41.75
2023-05-10T01:44:09.531Z,42.61
2023-05-10T01:45:09.312Z,41.82
2023-05-10T01:46:09.329Z,40.87
2023-05-10T01:47:09.287Z,41.10
2023-05-10T01:48:09.359Z,40.23
2023-05-10T01:49:09.383Z,42.76
2023-05-10T01:50:09.386Z,42.00
2023-05-10T01:51:09.429Z,40.87
2023-05-10T01:52:09.465Z,42.39
2023-05-10T01:53:09.471Z,41.40
2023-05-10T01:54:09.548Z,43.57
2023-05-10T01:55:09.528Z,43.85
2023-05-10T01:56:09.592Z,41.54
2023-05-10T01:57:09.667Z,42.11
2023-05-10T01:58:09.665Z,42.99
2023-05-10T01:59:09.685Z,43.06
2023-05-10T02:00:09.737Z,39.47
2023-05-10T02:01:09.789Z,40.68
2023-05-10T02:02:09.775Z,41.16
2023-05-10T02:03:09.883Z,41.80
2023-05-10T02:04:10.125Z,42.62
2023-05-10T02:05:09.880Z,42.54
2023-05-10T02:06:09.884Z,43.10
2023-05-10T02:07:09.957Z,43.41
2023-05-10T02:08:09.918Z,41.09
2023-05-10T02:09:09.969Z,43.76
2023-05-10T02:10:10.008Z,44.51
2023-05-10T02:11:10.057Z,43.23
2023-05-10T02:12:10.051Z,43.57
2023-05-10T02:13:10.110Z,44.17
2023-05-10T02:14:10.142Z,43.59
2023-05-10T02:15:10.151Z,43.37
2023-05-10T02:16:10.243Z,44.06
2023-05-10T02:17:10.373Z,44.14
2023-05-10T02:18:10.562Z,45.27
2023-05-10T02:19:10.523Z,44.38
2023-05-10T02:20:10.248Z,44.68
2023-05-10T02:21:10.295Z,44.97
2023-05-10T02:22:10.303Z,44.74
2023-05-10T02:23:10.364Z,43.85
2023-05-10T02:24:10.543Z,45.58
2023-05-10T02:25:10.396Z,44.07
2023-05-10T02:26:10.431Z,43.83
2023-05-10T02:27:10.464Z,44.89
2023-05-10T02:28:10.481Z,44.81
2023-05-10T02:29:10.512Z,44.78
2023-05-10T02:30:10.570Z,45.38
2023-05-10T02:31:10.608Z,43.24
2023-05-10T02:32:10.797Z,46.68
2023-05-10T02:33:10.645Z,44.72
2023-05-10T02:34:10.680Z,41.96
2023-05-10T02:35:10.725Z,43.56
2023-05-10T02:36:10.760Z,41.23
2023-05-10T02:37:10.849Z,45.40
2023-05-10T02:38:10.851Z,44.08
2023-05-10T02:39:10.856Z,45.38
2023-05-10T02:40:10.864Z,43.50
2023-05-10T02:41:10.912Z,43.53
2023-05-10T02:42:10.983Z,44.55
2023-05-10T02:43:10.988Z,43.29
2023-05-10T02:44:11.041Z,44.43
2023-05-10T02:45:11.032Z,44.97
2023-05-10T02:46:11.156Z,45.28
2023-05-10T02:47:11.108Z,44.35
2023-05-10T02:48:11.181Z,44.65
2023-05-10T02:49:11.238Z,46.08
2023-05-10T02:50:11.222Z,44.12
2023-05-10T02:51:11.252Z,43.28
2023-05-10T02:52:11.616Z,41.85
2023-05-10T02:53:11.745Z,42.53
2023-05-10T02:54:11.344Z,42.96
2023-05-10T02:55:11.331Z,44.50
2023-05-10T02:56:11.369Z,41.09
2023-05-10T02:57:11.358Z,43.58
2023-05-10T02:58:11.418Z,44.55
2023-05-10T02:59:11.446Z,44.88
2023-05-10T03:00:11.459Z,44.67
2023-05-10T03:01:11.553Z,44.06
2023-05-10T03:02:11.530Z,42.26
2023-05-10T03:03:11.531Z,45.25
2023-05-10T03:04:11.605Z,43.54
2023-05-10T03:05:11.623Z,41.58
2023-05-10T03:06:11.615Z,42.39
2023-05-10T03:07:11.714Z,44.71
2023-05-10T03:08:11.695Z,44.12
2023-05-10T03:09:11.762Z,43.85
2023-05-10T03:10:11.795Z,45.26
2023-05-10T03:11:11.770Z,41.65
2023-05-10T03:12:11.856Z,42.67
2023-05-10T03:13:11.918Z,45.92
2023-05-10T03:14:11.916Z,47.37
2023-05-10T03:15:11.902Z,45.63
2023-05-10T03:16:12.057Z,44.87
2023-05-10T03:17:11.979Z,45.08
2023-05-10T03:18:12.026Z,44.22
2023-05-10T03:19:12.032Z,43.03
2023-05-10T03:20:12.098Z,43.98
2023-05-10T03:21:12.105Z,42.61
2023-05-10T03:22:12.138Z,45.14
2023-05-10T03:23:12.155Z,47.14
2023-05-10T03:24:12.194Z,45.28
2023-05-10T03:25:12.243Z,44.13
2023-05-10T03:26:12.290Z,45.46
2023-05-10T03:27:12.320Z,45.95
2023-05-10T03:28:12.351Z,45.26
2023-05-10T03:29:12.363Z,44.21
2023-05-10T03:30:12.366Z,41.98
2023-05-10T03:31:12.462Z,44.69
2023-05-10T03:32:12.449Z,45.95
2023-05-10T03:33:12.503Z,43.17
2023-05-10T03:34:12.539Z,41.48
2023-05-10T03:35:12.592Z,42.63
2023-05-10T03:36:12.630Z,45.03
2023-05-10T03:37:12.657Z,46.81
2023-05-10T03:38:12.702Z,45.88
2023-05-10T03:39:13.099Z,46.36
2023-05-10T03:40:12.755Z,44.96
2023-05-10T03:41:12.786Z,44.39
2023-05-10T03:42:12.931Z,44.63
2023-05-10T03:43:12.883Z,44.94
2023-05-10T03:44:13.092Z,44.95
2023-05-10T03:45:12.988Z,46.55
2023-05-10T03:46:13.045Z,45.44
2023-05-10T03:47:12.998Z,42.46
2023-05-10T03:48:13.123Z,44.92
2023-05-10T03:49:13.095Z,43.03
2023-05-10T03:50:13.119Z,45.23
2023-05-10T03:51:13.162Z,43.88
2023-05-10T03:52:13.204Z,44.88
2023-05-10T03:53:13.257Z,43.97
2023-05-10T03:54:13.288Z,44.50
2023-05-10T03:55:13.330Z,46.50
2023-05-10T03:56:13.377Z,44.05
2023-05-10T03:57:13.392Z,44.72
2023-05-10T03:58:13.454Z,45.61
2023-05-10T03:59:13.466Z,42.39
2023-05-10T04:00:13.534Z,45.35
2023-05-10T04:01:13.559Z,42.39
2023-05-10T04:02:13.563Z,45.79
2023-05-10T04:03:13.647Z,44.41
2023-05-10T04:04:13.768Z,47.25
2023-05-10T04:05:13.662Z,44.68
2023-05-10T04:06:13.695Z,46.50
2023-05-10T04:07:13.737Z,44.61
2023-05-10T04:08:13.782Z,44.92
2023-05-10T04:09:13.850Z,46.20
2023-05-10T04:10:13.849Z,46.40
2023-05-10T04:11:13.908Z,46.50
2023-05-10T04:12:13.897Z,45.29
2023-05-10T04:13:14.023Z,43.51
2023-05-10T04:14:14.027Z,43.02
2023-05-10T04:15:14.022Z,46.52
2023-05-10T04:16:14.084Z,44.73
2023-05-10T04:17:14.168Z,42.43
2023-05-10T04:18:14.155Z,45.87
2023-05-10T04:19:14.186Z,43.83
2023-05-10T04:20:14.326Z,46.95
2023-05-10T04:21:14.240Z,44.07
2023-05-10T04:22:14.269Z,45.29
2023-05-10T04:23:14.306Z,44.51
2023-05-10T04:24:14.362Z,45.57
2023-05-10T04:25:14.420Z,45.11
2023-05-10T04:26:14.464Z,44.08
2023-05-10T04:27:14.485Z,46.04
2023-05-10T04:28:14.523Z,45.23
2023-05-10T04:29:14.603Z,44.44
2023-05-10T04:30:14.790Z,42.42
2023-05-10T04:31:14.703Z,42.08
2023-05-10T04:32:14.674Z,41.31
2023-05-10T04:33:14.740Z,43.87
2023-05-10T04:34:14.773Z,44.95
2023-05-10T04:35:14.847Z,44.46
2023-05-10T04:36:14.867Z,44.86
2023-05-10T04:37:14.894Z,43.17
2023-05-10T04:38:14.958Z,43.44
2023-05-10T04:39:15.015Z,44.15
2023-05-10T04:40:15.302Z,43.03
2023-05-10T04:41:15.073Z,42.34
2023-05-10T04:42:15.202Z,43.50
2023-05-10T04:43:15.174Z,44.17
2023-05-10T04:44:15.211Z,40.85
2023-05-10T04:45:15.296Z,44.98
2023-05-10T04:46:15.277Z,41.57
2023-05-10T04:47:15.322Z,41.63
2023-05-10T04:48:15.372Z,40.90
2023-05-10T04:49:15.588Z,43.13
2023-05-10T04:50:15.633Z,43.98
2023-05-10T04:51:15.461Z,42.31
2023-05-10T04:52:15.516Z,39.98
2023-05-10T04:53:16.035Z,38.54
2023-05-10T04:54:15.579Z,43.75
2023-05-10T04:55:15.587Z,42.42
2023-05-10T04:56:15.630Z,40.15
2023-05-10T04:57:15.700Z,41.47
2023-05-10T04:58:15.732Z,44.17
2023-05-10T04:59:15.791Z,42.63
2023-05-10T05:00:15.896Z,40.69
2023-05-10T05:01:15.861Z,43.72
2023-05-10T05:02:15.868Z,40.56
2023-05-10T05:03:16.032Z,44.06
2023-05-10T05:04:16.136Z,42.58
2023-05-10T05:05:16.004Z,66.40
2023-05-10T05:06:16.007Z,89.67
2023-05-10T05:07:16.088Z,104.94
2023-05-10T05:08:16.123Z,100.82
2023-05-10T05:09:16.122Z,103.85
2023-05-10T05:10:16.471Z,110.80
2023-05-10T05:11:16.227Z,121.73
2023-05-10T05:12:16.244Z,120.42
2023-05-10T05:13:16.311Z,118.77
2023-05-10T05:14:16.373Z,113.82
2023-05-10T05:15:16.378Z,107.64
2023-05-10T05:16:16.455Z,103.86
2023-05-10T05:17:16.449Z,102.95
2023-05-10T05:18:16.519Z,97.74
2023-05-10T05:19:16.554Z,92.07
2023-05-10T05:20:16.801Z,90.62
2023-05-10T05:21:16.656Z,91.00
2023-05-10T05:22:18.356Z,90.95
2023-05-10T05:23:16.669Z,94.69
2023-05-10T05:24:17.103Z,94.51
2023-05-10T05:25:16.652Z,88.09
2023-05-10T05:26:16.659Z,90.74
2023-05-10T05:27:16.643Z,91.80
2023-05-10T05:28:16.650Z,90.65
2023-05-10T05:29:16.599Z,93.82
2023-05-10T05:30:16.824Z,89.31
2023-05-10T05:31:16.612Z,90.17
2023-05-10T05:32:16.586Z,90.23
2023-05-10T05:33:16.613Z,87.80
2023-05-10T05:34:16.626Z,87.01
2023-05-10T05:35:16.740Z,85.93
2023-05-10T05:36:16.576Z,88.35
2023-05-10T05:37:16.549Z,86.51
2023-05-10T05:38:16.557Z,85.44
2023-05-10T05:39:16.531Z,85.47
2023-05-10T05:40:16.638Z,87.15
2023-05-10T05:41:16.555Z,87.05
2023-05-10T05:42:16.544Z,84.31
2023-05-10T05:43:16.538Z,84.62
2023-05-10T05:44:16.596Z,87.52
2023-05-10T05:45:16.733Z,86.68
2023-05-10T05:46:16.558Z,85.63
2023-05-10T05:47:16.525Z,87.79
2023-05-10T05:48:16.535Z,94.83
2023-05-10T05:49:16.772Z,90.87
2023-05-10T05:50:16.485Z,95.30
2023-05-10T05:51:16.484Z,99.72
2023-05-10T05:52:16.466Z,96.67
2023-05-10T05:53:16.477Z,94.55
2023-05-10T05:54:16.465Z,99.00
2023-05-10T05:55:16.864Z,100.11
2023-05-10T05:56:16.462Z,105.61
2023-05-10T05:57:16.431Z,105.32
2023-05-10T05:58:16.388Z,106.76
2023-05-10T05:59:16.391Z,108.53
2023-05-10T06:00:16.512Z,110.01
2023-05-10T06:01:16.562Z,113.94
2023-05-10T06:02:16.578Z,116.44
2023-05-10T06:03:16.526Z,117.49
2023-05-10T06:04:16.624Z,115.15
2023-05-10T06:05:16.576Z,115.75
2023-05-10T06:06:16.348Z,120.60
2023-05-10T06:07:16.430Z,124.39
2023-05-10T06:08:16.339Z,124.41
2023-05-10T06:09:16.336Z,127.71
2023-05-10T06:10:16.340Z,130.14
2023-05-10T06:11:16.391Z,129.14
2023-05-10T06:12:16.322Z,129.13
2023-05-10T06:13:16.456Z,131.63
2023-05-10T06:14:16.417Z,128.15
2023-05-10T06:15:16.572Z,127.29
2023-05-10T06:16:16.460Z,129.36
2023-05-10T06:17:16.478Z,129.05
2023-05-10T06:18:16.532Z,131.49
2023-05-10T06:19:16.617Z,125.81
2023-05-10T06:20:16.560Z,125.63
2023-05-10T06:21:16.712Z,122.39
2023-05-10T06:22:16.606Z,123.10
2023-05-10T06:23:16.633Z,124.09
2023-05-10T06:24:17.142Z,123.36
2023-05-10T06:25:16.880Z,125.01
2023-05-10T06:26:16.726Z,125.57
2023-05-10T06:27:16.775Z,124.90
2023-05-10T06:28:16.773Z,124.62
2023-05-10T06:29:16.822Z,122.33
2023-05-10T06:30:16.858Z,120.74
2023-05-10T06:31:16.866Z,123.08
2023-05-10T06:32:16.875Z,121.82
2023-05-10T06:33:16.920Z,122.64
2023-05-10T06:34:16.999Z,121.69
2023-05-10T06:35:17.507Z,121.61
2023-05-10T06:36:17.059Z,120.45
2023-05-10T06:37:17.068Z,118.87
2023-05-10T06:38:17.123Z,121.79
2023-05-10T06:39:17.119Z,118.78
2023-05-10T06:40:17.178Z,118.27
2023-05-10T06:41:17.172Z,117.13
2023-05-10T06:42:17.212Z,117.71
2023-05-10T06:43:17.259Z,117.39
2023-05-10T06:44:17.323Z,117.85
2023-05-10T06:45:17.732Z,116.07
2023-05-10T06:46:17.417Z,115.44
2023-05-10T06:47:17.403Z,115.91
2023-05-10T06:48:17.519Z,116.37
2023-05-10T06:49:17.417Z,113.57
2023-05-10T06:50:17.543Z,115.82
2023-05-10T06:51:17.514Z,113.87
2023-05-10T06:52:17.552Z,112.52
2023-05-10T06:53:17.575Z,113.02
2023-05-10T06:54:17.607Z,113.07
2023-05-10T06:55:18.378Z,109.83
2023-05-10T06:56:17.714Z,108.31
2023-05-10T06:57:30.422Z,111.22
2023-05-10T06:58:18.712Z,111.57
2023-05-10T06:59:17.739Z,112.91
2023-05-10T07:00:18.009Z,115.70
2023-05-10T07:01:17.817Z,123.83
2023-05-10T07:02:17.777Z,135.62
2023-05-10T07:03:17.761Z,136.32
2023-05-10T07:04:17.730Z,137.54
2023-05-10T07:05:18.907Z,136.41
2023-05-10T07:06:29.356Z,138.08
2023-05-10T07:07:18.646Z,138.48
2023-05-10T07:08:17.691Z,139.95
2023-05-10T07:09:17.634Z,144.28
2023-05-10T07:10:17.719Z,150.39
2023-05-10T07:11:17.621Z,160.49
2023-05-10T07:12:17.671Z,165.73
2023-05-10T07:13:17.746Z,169.34
2023-05-10T07:14:17.610Z,167.75
2023-05-10T07:15:17.930Z,178.20
2023-05-10T07:16:17.692Z,181.74
2023-05-10T07:17:17.615Z,186.07
2023-05-10T07:18:17.666Z,187.43
2023-05-10T07:19:17.610Z,195.42
2023-05-10T07:20:17.662Z,197.03
2023-05-10T07:21:17.623Z,199.07
2023-05-10T07:22:17.589Z,209.78
2023-05-10T07:23:17.557Z,213.96
2023-05-10T07:24:17.649Z,218.25
2023-05-10T07:25:17.784Z,224.27
2023-05-10T07:26:17.574Z,229.06
2023-05-10T07:27:17.665Z,233.57
2023-05-10T07:28:17.694Z,235.70
2023-05-10T07:29:17.754Z,245.14
2023-05-10T07:30:17.840Z,248.83
2023-05-10T07:31:17.811Z,250.00
2023-05-10T07:32:17.920Z,248.49
2023-05-10T07:33:17.994Z,249.58
2023-05-10T07:34:17.954Z,250.00
2023-05-10T07:35:18.211Z,248.45
2023-05-10T07:36:18.092Z,248.32
2023-05-10T07:37:18.165Z,248.68
2023-05-10T07:38:18.227Z,247.61
2023-05-10T07:39:26.535Z,250.00
2023-05-10T07:40:19.188Z,250.25
2023-05-10T07:41:18.215Z,251.07
2023-05-10T07:42:18.183Z,253.36
2023-05-10T07:43:18.154Z,257.57
2023-05-10T07:44:18.212Z,262.89
2023-05-10T07:45:18.977Z,250.00
2023-05-10T07:46:19.226Z,244.54
2023-05-10T07:47:18.160Z,154.91
2023-05-10T07:48:18.888Z,102.96
2023-05-10T07:49:18.265Z,74.76
2023-05-10T07:50:18.127Z,62.73
2023-05-10T07:51:18.103Z,57.90
2023-05-10T07:52:18.100Z,39.62
2023-05-10T07:53:18.154Z,25.00
2023-05-10T07:54:18.180Z,25.59
2023-05-10T07:55:18.323Z,37.12
2023-05-10T07:56:18.233Z,61.56
2023-05-10T07:57:18.352Z,62.33
2023-05-10T07:58:18.539Z,67.19
2023-05-10T07:59:18.509Z,67.84
2023-05-10T08:00:18.632Z,81.30
2023-05-10T08:01:18.521Z,90.64
2023-05-10T08:02:18.538Z,96.97
2023-05-10T08:03:18.568Z,102.43
2023-05-10T08:04:18.565Z,105.51
2023-05-10T08:05:18.681Z,110.81
2023-05-10T08:06:18.546Z,115.58
2023-05-10T08:07:18.501Z,121.03
2023-05-10T08:08:18.534Z,127.65
2023-05-10T08:09:18.549Z,132.77
2023-05-10T08:10:18.670Z,138.05
2023-05-10T08:11:18.617Z,143.72
2023-05-10T08:12:18.621Z,147.59
2023-05-10T08:13:18.670Z,149.99
2023-05-10T08:14:18.748Z,157.77
2023-05-10T08:15:18.973Z,158.88
2023-05-10T08:16:18.953Z,164.95
2023-05-10T08:17:19.937Z,167.00
2023-05-10T08:18:21.745Z,170.22
2023-05-10T08:19:18.932Z,177.13
2023-05-10T08:20:18.922Z,182.17
2023-05-10T08:21:18.920Z,185.21
2023-05-10T08:22:18.902Z,188.70
2023-05-10T08:23:18.905Z,191.62
2023-05-10T08:24:18.927Z,196.04
2023-05-10T08:25:19.100Z,199.72
2023-05-10T08:26:18.903Z,203.63
2023-05-10T08:27:18.867Z,204.39
2023-05-10T08:28:18.872Z,207.11
2023-05-10T08:29:18.909Z,207.38
2023-05-10T08:30:19.158Z,212.51
2023-05-10T08:31:18.851Z,216.10
2023-05-10T08:32:18.906Z,217.95
2023-05-10T08:33:18.886Z,221.96
2023-05-10T08:34:18.851Z,221.02
2023-05-10T08:35:18.891Z,224.19
2023-05-10T08:36:18.800Z,227.37
2023-05-10T08:37:18.865Z,228.78
2023-05-10T08:38:18.837Z,233.00
2023-05-10T08:39:27.059Z,233.95
2023-05-10T08:40:19.823Z,234.37
2023-05-10T08:41:18.787Z,235.24
2023-05-10T08:42:18.794Z,236.46
2023-05-10T08:43:18.802Z,236.66
2023-05-10T08:44:18.766Z,214.37
2023-05-10T08:45:19.075Z,208.95
2023-05-10T08:46:18.748Z,201.40
2023-05-10T08:47:18.760Z,174.96
2023-05-10T08:48:18.792Z,87.25
2023-05-10T08:49:18.732Z,92.97
2023-05-10T08:50:19.175Z,121.27
2023-05-10T08:51:18.701Z,140.34
2023-05-10T08:52:18.739Z,131.23
2023-05-10T08:53:18.727Z,142.74
2023-05-10T08:54:18.732Z,143.92
2023-05-10T08:55:19.296Z,150.08
2023-05-10T08:56:18.716Z,151.69
2023-05-10T08:57:18.708Z,139.63
2023-05-10T08:58:18.662Z,140.72
2023-05-10T08:59:18.677Z,141.69
2023-05-10T09:00:19.181Z,145.63
2023-05-10T09:01:18.785Z,145.00
2023-05-10T09:02:18.987Z,143.21
2023-05-10T09:03:18.677Z,141.71
2023-05-10T09:04:18.784Z,148.71
2023-05-10T09:05:19.626Z,136.95
2023-05-10T09:06:18.709Z,131.69
2023-05-10T09:07:18.735Z,125.72
2023-05-10T09:08:18.785Z,122.15
2023-05-10T09:09:18.775Z,123.50
2023-05-10T09:10:19.206Z,120.93
2023-05-10T09:11:18.804Z,113.27
2023-05-10T09:12:18.806Z,110.15
2023-05-10T09:13:18.839Z,109.24
2023-05-10T09:14:18.866Z,108.58
2023-05-10T09:15:19.291Z,108.41
2023-05-10T09:16:21.909Z,108.41
2023-05-10T09:17:18.968Z,109.70
2023-05-10T09:18:18.913Z,100.84
2023-05-10T09:19:18.837Z,99.15
2023-05-10T09:20:18.860Z,98.37
2023-05-10T09:21:18.854Z,96.38
2023-05-10T09:22:18.840Z,90.10
2023-05-10T09:23:18.823Z,88.06
2023-05-10T09:24:18.814Z,82.83
2023-05-10T09:25:19.570Z,80.84
2023-05-10T09:26:18.811Z,76.20
2023-05-10T09:27:18.802Z,74.61
2023-05-10T09:28:18.799Z,73.05
2023-05-10T09:29:18.832Z,66.57
2023-05-10T09:30:19.216Z,68.72
2023-05-10T09:31:18.804Z,65.80
2023-05-10T09:32:18.757Z,63.50
2023-05-10T09:33:18.754Z,64.23
2023-05-10T09:34:19.674Z,67.07
2023-05-10T09:35:18.962Z,62.63
2023-05-10T09:36:18.755Z,59.91
2023-05-10T09:37:18.745Z,63.27
2023-05-10T09:38:18.683Z,61.87
2023-05-10T09:39:18.708Z,63.33
2023-05-10T09:40:19.201Z,56.16
2023-05-10T09:41:18.677Z,56.20
2023-05-10T09:42:18.690Z,55.07
2023-05-10T09:43:19.747Z,54.94
2023-05-10T09:44:18.666Z,54.62
2023-05-10T09:45:18.776Z,53.61
2023-05-10T09:46:18.770Z,52.38
2023-05-10T09:47:18.683Z,54.25
2023-05-10T09:48:18.659Z,58.88
2023-05-10T09:49:18.656Z,53.04
2023-05-10T09:50:18.775Z,55.66
2023-05-10T09:51:18.615Z,55.46
2023-05-10T09:52:18.686Z,53.37
2023-05-10T09:53:18.613Z,53.85
2023-05-10T09:54:18.624Z,52.97
2023-05-10T09:55:18.720Z,52.49
2023-05-10T09:56:18.594Z,57.60
2023-05-10T09:57:18.612Z,57.32
2023-05-10T09:58:18.607Z,55.68
2023-05-10T09:59:18.581Z,58.31
2023-05-10T10:00:18.630Z,59.62
2023-05-10T10:01:18.710Z,56.41
2023-05-10T10:02:18.575Z,57.79
2023-05-10T10:03:18.555Z,58.71
2023-05-10T10:04:18.556Z,60.20
2023-05-10T10:05:18.859Z,58.54
2023-05-10T10:06:29.169Z,56.27
2023-05-10T10:07:19.519Z,56.44
2023-05-10T10:08:18.524Z,54.40
2023-05-10T10:09:18.508Z,54.89
2023-05-10T10:10:19.196Z,46.98
2023-05-10T10:11:18.702Z,45.73
2023-05-10T10:12:18.505Z,42.56
2023-05-10T10:13:19.490Z,42.65
2023-05-10T10:14:18.470Z,36.37
2023-05-10T10:15:18.686Z,35.14
2023-05-10T10:16:18.706Z,38.43
2023-05-10T10:17:18.452Z,31.86
2023-05-10T10:18:18.480Z,33.11
2023-05-10T10:19:18.409Z,28.43
2023-05-10T10:20:18.641Z,27.09
2023-05-10T10:21:18.716Z,31.42
2023-05-10T10:22:18.417Z,30.90
2023-05-10T10:23:18.412Z,27.31
2023-05-10T10:24:18.419Z,27.41
2023-05-10T10:25:18.699Z,27.14
2023-05-10T10:26:18.724Z,25.62
2023-05-10T10:27:18.403Z,27.42
2023-05-10T10:28:18.412Z,27.51
2023-05-10T10:29:18.408Z,31.56
2023-05-10T10:30:18.443Z,27.45
2023-05-10T10:31:18.584Z,30.42
2023-05-10T10:32:18.503Z,29.48
2023-05-10T10:33:27.982Z,26.55
2023-05-10T10:34:19.540Z,26.72
2023-05-10T10:35:18.716Z,27.05
2023-05-10T10:36:18.718Z,26.88
2023-05-10T10:37:18.545Z,27.59
2023-05-10T10:38:20.186Z,29.01
2023-05-10T10:39:18.525Z,31.27
2023-05-10T10:40:18.487Z,28.67
2023-05-10T10:41:18.491Z,31.79
2023-05-10T10:42:18.539Z,30.74
2023-05-10T10:43:18.472Z,30.51
2023-05-10T10:44:18.487Z,28.01
2023-05-10T10:45:18.857Z,26.79
2023-05-10T10:46:18.881Z,30.79
2023-05-10T10:47:18.450Z,37.46
2023-05-10T10:48:18.466Z,38.12
2023-05-10T10:49:18.502Z,33.27
2023-05-10T10:50:18.522Z,35.84
2023-05-10T10:51:18.573Z,32.31
2023-05-10T10:52:18.626Z,29.85
2023-05-10T10:53:18.683Z,25.00
2023-05-10T10:54:18.654Z,28.44
2023-05-10T10:55:19.109Z,23.70
2023-05-10T10:56:18.722Z,25.66
2023-05-10T10:57:18.778Z,33.31
2023-05-10T10:58:18.823Z,46.83
2023-05-10T10:59:19.806Z,47.34
2023-05-10T11:00:18.791Z,50.94
2023-05-10T11:01:18.895Z,58.63
2023-05-10T11:02:18.854Z,74.95
2023-05-10T11:03:18.782Z,103.83
2023-05-10T11:04:18.804Z,109.08
2023-05-10T11:05:18.751Z,108.90
2023-05-10T11:06:18.741Z,124.25
2023-05-10T11:07:18.720Z,130.45
2023-05-10T11:08:18.762Z,129.48
2023-05-10T11:09:18.760Z,137.76
2023-05-10T11:10:18.734Z,141.24
2023-05-10T11:11:18.716Z,98.63
2023-05-10T11:12:18.707Z,64.28
2023-05-10T11:13:18.718Z,43.59
2023-05-10T11:14:18.687Z,45.21
2023-05-10T11:15:18.734Z,26.91
2023-05-10T11:16:18.781Z,29.81
2023-05-10T11:17:18.684Z,27.06
2023-05-10T11:18:18.802Z,34.48
2023-05-10T11:19:18.814Z,34.84
2023-05-10T11:20:19.156Z,69.41
2023-05-10T11:21:18.866Z,261.74
2023-05-10T11:22:18.908Z,123.95
2023-05-10T11:23:18.934Z,101.48
2023-05-10T11:24:18.977Z,83.83
2023-05-10T11:25:19.073Z,69.35
2023-05-10T11:26:19.383Z,64.67
2023-05-10T11:27:19.246Z,55.22
2023-05-10T11:28:19.307Z,46.79
2023-05-10T11:29:19.256Z,39.89
2023-05-10T11:30:19.499Z,32.52
2023-05-10T11:31:19.830Z,27.15
2023-05-10T11:32:19.367Z,27.07
2023-05-10T11:33:19.557Z,33.77
2023-05-10T11:34:19.390Z,41.81
2023-05-10T11:35:19.419Z,49.46
2023-05-10T11:36:19.786Z,57.91
2023-05-10T11:37:19.451Z,60.63
2023-05-10T11:38:19.536Z,73.91
2023-05-10T11:39:19.562Z,80.45
2023-05-10T11:40:19.679Z,87.38
2023-05-10T11:41:19.762Z,91.20
2023-05-10T11:42:19.680Z,87.58
2023-05-10T11:43:19.714Z,83.45
2023-05-10T11:44:19.777Z,86.59
2023-05-10T11:45:19.839Z,90.64
2023-05-10T11:46:19.897Z,95.37
2023-05-10T11:47:19.923Z,98.27
2023-05-10T11:48:19.953Z,99.63
2023-05-10T11:49:20.002Z,101.19
2023-05-10T11:50:20.206Z,100.33
2023-05-10T11:51:20.243Z,102.84
2023-05-10T11:52:20.092Z,99.49
2023-05-10T11:53:20.154Z,99.57
2023-05-10T11:54:20.157Z,103.50
2023-05-10T11:55:20.195Z,100.39
2023-05-10T11:56:20.182Z,102.10
2023-05-10T11:57:20.307Z,99.98
2023-05-10T11:58:20.260Z,99.59
2023-05-10T11:59:20.321Z,100.35
2023-05-10T12:00:20.473Z,100.16
2023-05-10T12:01:20.368Z,101.73
2023-05-10T12:02:20.409Z,103.52
2023-05-10T12:03:20.502Z,104.16
2023-05-10T12:04:20.544Z,101.86
2023-05-10T12:05:20.519Z,103.04
2023-05-10T12:06:20.591Z,110.94
2023-05-10T12:07:20.556Z,106.84
2023-05-10T12:08:20.555Z,108.44
2023-05-10T12:09:31.409Z,109.78
2023-05-10T12:10:21.651Z,109.93
2023-05-10T12:11:20.729Z,110.29
2023-05-10T12:12:20.787Z,110.76
2023-05-10T12:13:20.801Z,111.61
2023-05-10T12:14:20.826Z,113.32
2023-05-10T12:15:20.706Z,113.63
2023-05-10T12:16:20.813Z,113.47
2023-05-10T12:17:20.543Z,115.11
2023-05-10T12:18:20.590Z,113.85
2023-05-10T12:19:20.522Z,115.02
2023-05-10T12:20:20.714Z,116.12
2023-05-10T12:21:20.837Z,90.83
2023-05-10T12:22:20.615Z,63.12
2023-05-10T12:23:20.614Z,54.57
2023-05-10T12:24:20.695Z,51.02
2023-05-10T12:25:20.793Z,43.14
2023-05-10T12:26:21.261Z,56.06
2023-05-10T12:27:20.880Z,60.76
2023-05-10T12:28:20.888Z,66.70
2023-05-10T12:29:20.918Z,75.95
2023-05-10T12:30:21.024Z,82.11
2023-05-10T12:31:21.259Z,84.81
2023-05-10T12:32:21.131Z,86.04
2023-05-10T12:33:21.140Z,86.65
2023-05-10T12:34:21.180Z,87.45
2023-05-10T12:35:21.283Z,87.50
2023-05-10T12:36:21.772Z,90.78
2023-05-10T12:37:21.366Z,94.27
2023-05-10T12:38:21.380Z,97.75
2023-05-10T12:39:21.503Z,101.16
2023-05-10T12:40:21.507Z,103.63
2023-05-10T12:41:21.807Z,105.59
2023-05-10T12:42:21.660Z,106.14
2023-05-10T12:43:21.674Z,108.59
2023-05-10T12:44:21.633Z,108.61